createdAt,value
2023-03-14T00:02:04.906Z,9.70
2023-03-14T00:04:32.906Z,9.70
2023-03-14T00:07:00.866Z,9.60
2023-03-14T00:09:30.673Z,9.50
2023-03-14T00:12:07.891Z,9.60
2023-03-14T00:14:36.010Z,9.60
2023-03-14T00:17:03.974Z,9.60
2023-03-14T00:19:31.986Z,9.50
2023-03-14T00:21:59.979Z,9.60
2023-03-14T00:24:27.944Z,9.60
2023-03-14T00:26:55.935Z,9.60
2023-03-14T00:29:25.301Z,9.70
2023-03-14T00:31:55.222Z,9.70
2023-03-14T00:34:23.197Z,9.80
2023-03-14T00:36:51.183Z,9.80
2023-03-14T00:39:19.140Z,9.80
2023-03-14T00:41:47.108Z,9.80
2023-03-14T00:44:15.107Z,9.80
2023-03-14T00:46:44.541Z,9.80
2023-03-14T00:49:12.556Z,9.90
2023-03-14T00:51:40.534Z,9.90
2023-03-14T00:54:08.521Z,9.90
2023-03-14T00:56:36.465Z,9.90
2023-03-14T00:59:04.475Z,9.90
2023-03-14T01:01:32.559Z,10.00
2023-03-14T01:04:01.923Z,9.90
2023-03-14T01:06:30.882Z,9.90
2023-03-14T01:08:59.864Z,9.90
2023-03-14T01:11:29.808Z,9.80
2023-03-14T01:13:58.050Z,9.70
2023-03-14T01:16:32.589Z,9.70
2023-03-14T01:19:02.073Z,9.70
2023-03-14T01:21:32.271Z,9.70
2023-03-14T01:24:01.453Z,9.60
2023-03-14T01:26:34.173Z,9.60
2023-03-14T01:29:02.700Z,9.60
2023-03-14T01:31:30.679Z,9.60
2023-03-14T01:33:58.868Z,9.70
2023-03-14T01:36:30.427Z,9.70
2023-03-14T01:38:59.499Z,9.70
2023-03-14T01:41:28.008Z,9.60
2023-03-14T01:43:56.039Z,9.60
2023-03-14T01:46:34.142Z,9.60
2023-03-14T01:49:06.644Z,9.60
2023-03-14T01:51:42.619Z,9.60
2023-03-14T01:54:16.700Z,9.70
2023-03-14T01:56:49.397Z,9.60
2023-03-14T01:59:17.559Z,9.60
2023-03-14T02:01:48.782Z,9.60
2023-03-14T02:04:19.300Z,9.60
2023-03-14T02:06:53.383Z,9.50
2023-03-14T02:09:22.385Z,9.50
2023-03-14T02:11:51.742Z,9.50
2023-03-14T02:14:32.732Z,9.40
2023-03-14T02:17:02.058Z,9.40
2023-03-14T02:19:46.319Z,9.50
2023-03-14T02:22:18.510Z,9.40
2023-03-14T02:24:53.681Z,9.50
2023-03-14T02:27:23.402Z,9.50
2023-03-14T02:29:54.581Z,9.40
2023-03-14T02:32:24.872Z,9.40
2023-03-14T02:34:56.685Z,9.40
2023-03-14T02:37:27.970Z,9.40
2023-03-14T02:39:56.073Z,9.40
2023-03-14T02:42:25.579Z,9.40
2023-03-14T02:44:55.806Z,9.40
2023-03-14T02:47:31.029Z,9.40
2023-03-14T02:50:08.732Z,9.40
2023-03-14T02:52:36.749Z,9.40
2023-03-14T02:55:05.178Z,9.40
2023-03-14T02:57:34.562Z,9.40
2023-03-14T03:00:04.015Z,9.30
2023-03-14T03:02:32.153Z,9.30
2023-03-14T03:05:00.319Z,9.30
2023-03-14T03:07:28.459Z,9.20
2023-03-14T03:09:56.436Z,9.20
2023-03-14T03:12:24.469Z,9.20
2023-03-14T03:14:53.765Z,9.20
2023-03-14T03:17:21.870Z,9.20
2023-03-14T03:19:49.867Z,9.10
2023-03-14T03:22:17.879Z,9.10
2023-03-14T03:24:46.317Z,9.10
2023-03-14T03:27:14.293Z,9.00
2023-03-14T03:29:42.272Z,9.10
2023-03-14T03:32:11.599Z,9.10
2023-03-14T03:34:39.539Z,9.00
2023-03-14T03:37:07.497Z,9.00
2023-03-14T03:39:35.445Z,9.00
2023-03-14T03:42:03.456Z,9.00
2023-03-14T03:44:31.440Z,9.00
2023-03-14T03:46:59.476Z,9.00
2023-03-14T03:49:32.303Z,8.90
2023-03-14T03:52:00.618Z,8.90
2023-03-14T03:54:29.804Z,8.90
2023-03-14T03:56:57.866Z,8.80
2023-03-14T03:59:26.307Z,8.80
2023-03-14T04:01:54.436Z,8.80
2023-03-14T04:04:22.623Z,8.80
2023-03-14T04:06:51.884Z,8.80
2023-03-14T04:09:19.821Z,8.80
2023-03-14T04:11:47.886Z,8.80
2023-03-14T04:14:16.035Z,8.70
2023-03-14T04:16:44.363Z,8.80
2023-03-14T04:19:12.500Z,8.70
2023-03-14T04:21:41.599Z,8.70
2023-03-14T04:24:11.006Z,8.70
2023-03-14T04:26:39.062Z,8.70
2023-03-14T04:29:07.204Z,8.70
2023-03-14T04:31:35.352Z,8.70
2023-03-14T04:34:03.490Z,8.70
2023-03-14T04:36:31.546Z,8.70
2023-03-14T04:38:59.662Z,8.70
2023-03-14T04:41:29.117Z,8.70
2023-03-14T04:43:57.210Z,8.70
2023-03-14T04:46:25.331Z,8.60
2023-03-14T04:48:53.469Z,8.60
2023-03-14T04:51:24.343Z,8.60
2023-03-14T04:53:52.418Z,8.60
2023-03-14T04:56:20.447Z,8.60
2023-03-14T04:58:49.876Z,8.60
2023-03-14T05:01:18.830Z,8.60
2023-03-14T05:03:46.981Z,8.50
2023-03-14T05:06:15.066Z,8.50
2023-03-14T05:08:43.169Z,8.60
2023-03-14T05:11:12.994Z,8.50
2023-03-14T05:13:41.244Z,8.40
2023-03-14T05:16:12.868Z,8.50
2023-03-14T05:18:41.063Z,8.50
2023-03-14T05:21:09.278Z,8.50
2023-03-14T05:23:37.301Z,8.50
2023-03-14T05:26:05.570Z,8.50
2023-03-14T05:28:33.637Z,8.50
2023-03-14T05:31:01.741Z,8.50
2023-03-14T05:33:31.174Z,8.50
2023-03-14T05:35:59.383Z,8.50
2023-03-14T05:38:27.629Z,8.50
2023-03-14T05:40:55.676Z,8.60
2023-03-14T05:43:23.737Z,8.50
2023-03-14T05:45:51.819Z,8.60
2023-03-14T05:48:19.882Z,8.60
2023-03-14T05:50:49.438Z,8.50
2023-03-14T05:53:17.533Z,8.50
2023-03-14T05:55:45.583Z,8.50
2023-03-14T05:58:13.655Z,8.60
2023-03-14T06:00:41.737Z,8.50
2023-03-14T06:03:09.867Z,8.60
2023-03-14T06:05:38.022Z,8.60
2023-03-14T06:08:07.570Z,8.60
2023-03-14T06:10:37.297Z,8.60
2023-03-14T06:13:05.770Z,8.50
2023-03-14T06:15:34.563Z,8.50
2023-03-14T06:18:02.642Z,8.60
2023-03-14T06:20:30.799Z,8.60
2023-03-14T06:22:58.952Z,8.50
2023-03-14T06:25:28.447Z,8.60
2023-03-14T06:27:56.487Z,8.60
2023-03-14T06:30:24.735Z,8.60
2023-03-14T06:32:52.842Z,8.60
2023-03-14T06:35:21.424Z,8.60
2023-03-14T06:37:49.660Z,8.50
2023-03-14T06:40:19.347Z,8.50
2023-03-14T06:42:49.485Z,8.50
2023-03-14T06:45:17.920Z,8.50
2023-03-14T06:47:45.936Z,8.60
2023-03-14T06:50:13.982Z,8.60
2023-03-14T06:52:47.150Z,8.60
2023-03-14T06:55:15.706Z,8.60
2023-03-14T06:57:44.974Z,8.60
2023-03-14T07:00:16.343Z,8.70
2023-03-14T07:02:44.387Z,8.80
2023-03-14T07:05:12.736Z,8.90
2023-03-14T07:07:40.865Z,8.90
2023-03-14T07:10:10.516Z,9.00
2023-03-14T07:12:38.627Z,9.10
2023-03-14T07:15:19.980Z,9.20
2023-03-14T07:17:50.058Z,9.20
2023-03-14T07:20:18.820Z,9.30
2023-03-14T07:22:50.050Z,9.20
2023-03-14T07:25:18.514Z,9.20
2023-03-14T07:27:47.848Z,9.20
2023-03-14T07:30:16.822Z,9.30
2023-03-14T07:32:44.997Z,9.30
2023-03-14T07:35:14.615Z,9.40
2023-03-14T07:37:42.689Z,9.60
2023-03-14T07:40:14.280Z,9.80
2023-03-14T07:42:42.490Z,9.90
2023-03-14T07:45:12.351Z,10.00
2023-03-14T07:47:40.693Z,10.00
2023-03-14T07:50:10.209Z,10.10
2023-03-14T07:52:39.715Z,10.20
2023-03-14T07:55:08.620Z,10.30
2023-03-14T07:57:36.828Z,10.40
2023-03-14T08:00:06.856Z,10.60
2023-03-14T08:02:34.968Z,10.70
2023-03-14T08:05:03.000Z,10.80
2023-03-14T08:07:31.241Z,11.00
2023-03-14T08:10:00.699Z,11.20
2023-03-14T08:12:28.899Z,11.20
2023-03-14T08:14:57.066Z,11.20
2023-03-14T08:17:25.982Z,11.30
2023-03-14T08:19:55.445Z,11.40
2023-03-14T08:22:23.565Z,11.40
2023-03-14T08:24:51.648Z,11.50
2023-03-14T08:27:21.196Z,11.50
2023-03-14T08:29:49.264Z,11.40
2023-03-14T08:32:17.383Z,11.20
2023-03-14T08:34:45.455Z,11.30
2023-03-14T08:37:25.896Z,11.40
2023-03-14T08:39:55.121Z,11.40
2023-03-14T08:42:24.511Z,11.50
2023-03-14T08:44:53.527Z,11.60
2023-03-14T08:47:21.600Z,11.50
2023-03-14T08:49:49.794Z,11.50
2023-03-14T08:52:18.139Z,11.40
2023-03-14T08:54:46.659Z,11.30
2023-03-14T08:57:15.098Z,11.30
2023-03-14T08:59:44.819Z,11.20
2023-03-14T09:02:14.129Z,11.00
2023-03-14T09:04:42.250Z,10.80
2023-03-14T09:07:10.276Z,10.70
2023-03-14T09:09:45.913Z,10.60
2023-03-14T09:13:10.305Z,10.60
2023-03-14T09:16:17.921Z,10.50
2023-03-14T09:23:56.109Z,10.90
2023-03-14T09:26:24.214Z,11.00
2023-03-14T09:28:52.322Z,11.00
2023-03-14T09:31:21.806Z,11.10
2023-03-14T09:33:49.845Z,11.10
2023-03-14T09:36:18.059Z,11.10
2023-03-14T09:38:46.131Z,11.10
2023-03-14T09:41:18.705Z,10.70
2023-03-14T09:43:51.989Z,11.00
2023-03-14T09:46:22.742Z,11.10
2023-03-14T09:48:50.920Z,11.20
2023-03-14T09:51:22.704Z,11.30
2023-03-14T09:53:52.648Z,11.20
2023-03-14T09:56:23.636Z,11.40
2023-03-14T09:58:55.655Z,11.30
2023-03-14T10:01:31.109Z,11.30
2023-03-14T10:04:03.972Z,11.20
2023-03-14T10:06:32.881Z,11.20
2023-03-14T10:09:00.983Z,11.20
2023-03-14T10:11:29.076Z,11.40
2023-03-14T10:14:08.848Z,11.60
2023-03-14T10:16:42.970Z,11.80
2023-03-14T10:19:13.806Z,11.90
2023-03-14T10:21:43.525Z,12.10
2023-03-14T10:24:29.477Z,12.20
2023-03-14T10:27:02.359Z,12.40
2023-03-14T10:29:31.599Z,12.30
2023-03-14T10:32:03.847Z,12.00
2023-03-14T10:34:33.531Z,12.00
2023-03-14T10:37:10.055Z,11.90
2023-03-14T10:39:44.924Z,11.80
2023-03-14T10:42:22.132Z,11.80
2023-03-14T10:44:56.983Z,11.80
2023-03-14T10:47:29.294Z,11.90
2023-03-14T10:50:16.743Z,11.90
2023-03-14T10:53:02.028Z,11.80
2023-03-14T10:55:41.474Z,11.60
2023-03-14T10:58:23.148Z,11.70
2023-03-14T11:00:58.291Z,11.60
2023-03-14T11:03:31.826Z,11.60
2023-03-14T11:06:04.780Z,11.70
2023-03-14T11:08:39.891Z,11.60
2023-03-14T11:11:18.838Z,11.50
2023-03-14T11:14:00.901Z,11.40
2023-03-14T11:16:36.775Z,11.30
2023-03-14T11:19:40.984Z,11.00
2023-03-14T11:22:16.454Z,11.00
2023-03-14T11:24:58.831Z,11.10
2023-03-14T11:27:34.031Z,11.10
2023-03-14T11:30:14.517Z,11.20
2023-03-14T11:32:47.399Z,11.20
2023-03-14T11:35:24.773Z,10.90
2023-03-14T11:37:57.415Z,10.90
2023-03-14T11:40:28.857Z,10.80
2023-03-14T11:43:02.952Z,10.70
2023-03-14T11:45:36.284Z,10.60
2023-03-14T11:48:20.103Z,10.70
2023-03-14T11:50:53.936Z,10.50
2023-03-14T11:53:28.065Z,10.60
2023-03-14T11:55:56.071Z,10.80
2023-03-14T11:58:28.430Z,10.80
2023-03-14T12:00:58.767Z,10.70
2023-03-14T12:03:37.501Z,10.40
2023-03-14T12:06:19.144Z,10.30
2023-03-14T12:08:52.992Z,10.10
2023-03-14T12:11:27.724Z,10.20
2023-03-14T12:13:56.001Z,9.90
2023-03-14T12:16:41.996Z,9.80
2023-03-14T12:19:32.859Z,9.70
2023-03-14T12:22:09.394Z,9.60
2023-03-14T12:24:40.133Z,9.70
2023-03-14T12:27:14.836Z,9.80
2023-03-14T12:30:17.442Z,9.80
2023-03-14T12:33:05.640Z,9.90
2023-03-14T12:35:37.156Z,9.90
2023-03-14T12:38:11.707Z,9.90
2023-03-14T12:40:43.560Z,9.80
2023-03-14T12:43:28.324Z,9.90
2023-03-14T12:46:22.049Z,9.80
2023-03-14T12:48:51.642Z,9.70
2023-03-14T12:51:22.490Z,9.70
2023-03-14T12:54:23.328Z,9.80
2023-03-14T12:57:08.532Z,9.80
2023-03-14T12:59:38.391Z,9.80
2023-03-14T13:02:27.453Z,9.70
2023-03-14T13:05:04.191Z,9.50
2023-03-14T13:07:36.681Z,9.40
2023-03-14T13:10:20.147Z,9.40
2023-03-14T13:12:53.098Z,9.40
2023-03-14T13:15:25.614Z,9.50
2023-03-14T13:17:56.742Z,9.60
2023-03-14T13:20:31.182Z,9.50
2023-03-14T13:22:59.299Z,9.60
2023-03-14T13:25:32.469Z,9.50
2023-03-14T13:28:01.181Z,9.50
2023-03-14T13:30:30.917Z,9.20
2023-03-14T13:32:59.264Z,9.10
2023-03-14T13:35:30.299Z,8.90
2023-03-14T13:38:16.137Z,8.90
2023-03-14T13:40:47.537Z,9.00
2023-03-14T13:43:20.114Z,8.90
2023-03-14T13:45:54.042Z,8.70
2023-03-14T13:48:23.314Z,8.70
2023-03-14T13:50:56.652Z,8.70
2023-03-14T13:53:26.077Z,8.60
2023-03-14T13:58:30.079Z,8.40
2023-03-14T14:01:04.492Z,8.30
2023-03-14T14:03:34.877Z,8.50
2023-03-14T14:06:03.131Z,8.40
2023-03-14T14:08:32.110Z,8.50
2023-03-14T14:11:06.218Z,8.50
2023-03-14T14:13:37.293Z,8.80
2023-03-14T14:16:06.546Z,8.50
2023-03-14T14:18:36.474Z,8.50
2023-03-14T14:21:05.329Z,8.40
2023-03-14T14:23:33.595Z,8.40
2023-03-14T14:26:02.990Z,8.50
2023-03-14T14:28:33.355Z,8.60
2023-03-14T14:31:20.809Z,8.50
2023-03-14T14:33:56.597Z,8.40
2023-03-14T14:36:27.364Z,8.30
2023-03-14T14:38:59.548Z,8.30
2023-03-14T14:41:34.643Z,8.40
2023-03-14T14:44:04.869Z,8.40
2023-03-14T14:46:35.536Z,8.30
2023-03-14T14:49:11.491Z,8.30
2023-03-14T14:51:44.443Z,8.40
2023-03-14T14:54:16.305Z,8.40
2023-03-14T14:56:51.506Z,8.40
2023-03-14T14:59:30.030Z,8.60
2023-03-14T15:01:59.689Z,8.80
2023-03-14T15:04:28.683Z,8.90
2023-03-14T15:06:56.777Z,8.80
2023-03-14T15:09:25.141Z,8.90
2023-03-14T15:11:54.504Z,9.00
2023-03-14T15:14:22.689Z,9.20
2023-03-14T15:16:50.780Z,9.20
2023-03-14T15:19:25.488Z,9.10
2023-03-14T15:21:54.593Z,9.30
2023-03-14T15:24:23.025Z,9.90
2023-03-14T15:26:51.135Z,10.50
2023-03-14T15:29:20.774Z,10.40
2023-03-14T15:31:48.930Z,10.70
2023-03-14T15:34:17.703Z,9.80
2023-03-14T15:36:45.914Z,9.20
2023-03-14T15:39:14.094Z,9.60
2023-03-14T15:41:42.143Z,9.90
2023-03-14T15:44:10.214Z,9.70
2023-03-14T15:46:39.713Z,9.20
2023-03-14T15:49:07.782Z,9.10
2023-03-14T15:51:35.847Z,8.80
2023-03-14T15:54:04.134Z,8.70
2023-03-14T15:56:32.382Z,8.70
2023-03-14T15:59:01.047Z,8.70
2023-03-14T16:01:29.193Z,8.60
2023-03-14T16:03:58.687Z,8.60
2023-03-14T16:06:27.266Z,8.60
2023-03-14T16:08:55.378Z,8.60
2023-03-14T16:11:23.459Z,8.50
2023-03-14T16:13:53.163Z,8.40
2023-03-14T16:16:21.357Z,8.40
2023-03-14T16:18:49.409Z,8.30
2023-03-14T16:21:20.776Z,8.40
2023-03-14T16:23:49.485Z,8.40
2023-03-14T16:26:20.077Z,8.50
2023-03-14T16:28:49.277Z,8.60
2023-03-14T16:31:19.049Z,8.60
2023-03-14T16:33:47.245Z,8.70
2023-03-14T16:36:16.026Z,8.50
2023-03-14T16:38:46.893Z,8.40
2023-03-14T16:41:16.546Z,8.20
2023-03-14T16:43:45.832Z,8.20
2023-03-14T16:46:16.801Z,8.10
2023-03-14T16:48:45.719Z,8.10
2023-03-14T16:51:14.164Z,8.10
2023-03-14T16:53:42.212Z,8.10
2023-03-14T16:56:11.981Z,8.00
2023-03-14T16:58:40.622Z,7.90
2023-03-14T17:01:11.487Z,7.90
2023-03-14T17:03:41.333Z,7.70
2023-03-14T17:06:11.668Z,7.40
2023-03-14T17:08:39.980Z,7.50
2023-03-14T17:11:08.288Z,7.60
2023-03-14T17:13:38.574Z,7.10
2023-03-14T17:16:07.553Z,7.10
2023-03-14T17:18:36.568Z,7.00
2023-03-14T17:21:05.945Z,7.00
2023-03-14T17:23:35.120Z,6.90
2023-03-14T17:26:03.312Z,6.90
2023-03-14T17:28:31.395Z,6.90
2023-03-14T17:31:05.934Z,6.80
2023-03-14T17:33:34.724Z,6.80
2023-03-14T17:36:03.004Z,6.90
2023-03-14T17:38:31.163Z,6.60
2023-03-14T17:40:59.593Z,6.50
2023-03-14T17:43:27.710Z,6.30
2023-03-14T17:45:59.968Z,6.40
2023-03-14T17:51:02.000Z,6.10
2023-03-14T17:53:30.729Z,6.10
2023-03-14T17:55:58.922Z,6.10
2023-03-14T17:58:27.286Z,6.00
2023-03-14T18:00:56.720Z,5.90
2023-03-14T18:03:25.167Z,5.90
2023-03-14T18:05:54.882Z,5.80
2023-03-14T18:08:23.005Z,5.90
2023-03-14T18:10:55.058Z,5.90
2023-03-14T18:13:23.163Z,5.80
2023-03-14T18:15:52.215Z,5.70
2023-03-14T18:18:23.822Z,5.60
2023-03-14T18:20:55.795Z,5.60
2023-03-14T18:23:34.339Z,5.40
2023-03-14T18:26:03.000Z,5.40
2023-03-14T18:28:34.470Z,5.40
2023-03-14T18:31:03.159Z,5.40
2023-03-14T18:33:37.634Z,5.40
2023-03-14T18:36:08.146Z,5.40
2023-03-14T18:38:36.937Z,5.30
2023-03-14T18:41:06.696Z,5.30
2023-03-14T18:43:35.242Z,5.30
2023-03-14T18:46:03.617Z,5.30
2023-03-14T18:48:32.203Z,5.30
2023-03-14T18:51:01.304Z,5.30
2023-03-14T18:53:32.882Z,5.30
2023-03-14T18:56:01.273Z,5.20
2023-03-14T18:58:29.775Z,5.10
2023-03-14T19:00:59.007Z,5.20
2023-03-14T19:03:27.214Z,5.10
2023-03-14T19:05:55.448Z,5.20
2023-03-14T19:08:25.097Z,5.10
2023-03-14T19:10:55.973Z,5.10
2023-03-14T19:13:24.639Z,5.00
2023-03-14T19:15:53.281Z,4.90
2023-03-14T19:18:21.338Z,4.90
2023-03-14T19:30:55.110Z,4.70
2023-03-14T19:53:17.482Z,5.10
2023-03-14T19:55:46.695Z,5.30
2023-03-14T19:58:14.956Z,5.20
2023-03-14T20:00:45.728Z,5.20
2023-03-14T20:03:13.761Z,5.20
2023-03-14T20:05:44.722Z,5.20
2023-03-14T20:08:12.841Z,5.30
2023-03-14T20:10:41.235Z,5.30
2023-03-14T20:30:53.657Z,4.90
2023-03-14T20:33:21.925Z,5.00
2023-03-14T20:38:26.580Z,5.00
2023-03-14T20:45:56.779Z,5.00
2023-03-14T20:53:23.139Z,5.10
2023-03-14T20:55:52.234Z,5.20
2023-03-14T22:18:15.854Z,4.30
2023-03-14T22:20:44.960Z,4.30
2023-03-14T22:23:13.606Z,4.20
2023-03-14T22:25:43.228Z,4.20
2023-03-14T22:28:12.609Z,4.20
2023-03-14T22:30:40.700Z,4.30
2023-03-14T22:33:09.051Z,4.30
2023-03-14T23:55:10.570Z,2.20
2023-03-14T23:57:38.716Z,2.10
